Aviation Digital Data Service (ADDS)

Output produced by TAFs form (1725 UTC 25 October 2014)
found at http://aviationweather.gov/adds/tafs/
 
KTUS 251722Z 2518/2618 23006KT P6SM FEW100 
     FM252200 29008KT P6SM SCT100 
     FM260300 21006KT P6SM BKN120 
     FM260800 14007KT P6SM SCT150 
     FM261600 18006KT P6SM BKN200